sensor_id;sensor_type;location;lat;lon;timestamp;temperature;humidity
46117;DHT22;32591;48.102;11.772;2023-04-25T00:01:39;7.80;99.90
46117;DHT22;32591;48.102;11.772;2023-04-25T00:04:08;7.80;99.90
46117;DHT22;32591;48.102;11.772;2023-04-25T00:06:35;7.80;99.90
46117;DHT22;32591;48.102;11.772;2023-04-25T00:09:02;7.80;99.90
46117;DHT22;32591;48.102;11.772;2023-04-25T00:11:32;7.80;99.90
46117;DHT22;32591;48.102;11.772;2023-04-25T00:13:59;7.80;99.90
46117;DHT22;32591;48.102;11.772;2023-04-25T00:16:28;7.80;99.90
46117;DHT22;32591;48.102;11.772;2023-04-25T00:18:58;7.90;99.90
46117;DHT22;32591;48.102;11.772;2023-04-25T00:21:27;7.90;99.90
46117;DHT22;32591;48.102;11.772;2023-04-25T00:23:54;7.90;99.90
46117;DHT22;32591;48.102;11.772;2023-04-25T00:26:21;7.90;99.90
46117;DHT22;32591;48.102;11.772;2023-04-25T00:28:48;7.90;99.90
46117;DHT22;32591;48.102;11.772;2023-04-25T00:31:16;7.90;99.90
46117;DHT22;32591;48.102;11.772;2023-04-25T00:33:43;7.90;99.90
46117;DHT22;32591;48.102;11.772;2023-04-25T00:36:10;7.70;99.90
46117;DHT22;32591;48.102;11.772;2023-04-25T00:38:38;7.70;99.90
46117;DHT22;32591;48.102;11.772;2023-04-25T00:41:06;7.80;99.90
46117;DHT22;32591;48.102;11.772;2023-04-25T00:43:34;7.80;99.90
46117;DHT22;32591;48.102;11.772;2023-04-25T00:46:03;7.80;99.90
46117;DHT22;32591;48.102;11.772;2023-04-25T00:48:30;7.80;99.90
46117;DHT22;32591;48.102;11.772;2023-04-25T00:50:58;7.80;99.90
46117;DHT22;32591;48.102;11.772;2023-04-25T00:53:27;7.80;99.90
46117;DHT22;32591;48.102;11.772;2023-04-25T00:55:56;7.90;99.90
46117;DHT22;32591;48.102;11.772;2023-04-25T00:58:24;8.00;99.90
46117;DHT22;32591;48.102;11.772;2023-04-25T01:00:51;8.10;99.90
46117;DHT22;32591;48.102;11.772;2023-04-25T01:03:19;8.10;99.90
46117;DHT22;32591;48.102;11.772;2023-04-25T01:05:46;8.20;99.90
46117;DHT22;32591;48.102;11.772;2023-04-25T01:08:14;8.20;99.90
46117;DHT22;32591;48.102;11.772;2023-04-25T01:10:40;8.20;99.90
46117;DHT22;32591;48.102;11.772;2023-04-25T01:13:09;8.20;99.90
46117;DHT22;32591;48.102;11.772;2023-04-25T01:15:36;8.20;99.90
46117;DHT22;32591;48.102;11.772;2023-04-25T01:18:05;8.20;99.90
46117;DHT22;32591;48.102;11.772;2023-04-25T01:20:33;8.20;99.90
46117;DHT22;32591;48.102;11.772;2023-04-25T01:23:02;8.20;99.90
46117;DHT22;32591;48.102;11.772;2023-04-25T01:25:29;8.20;99.90
46117;DHT22;32591;48.102;11.772;2023-04-25T01:27:56;8.20;99.90
46117;DHT22;32591;48.102;11.772;2023-04-25T01:30:25;8.20;99.90
46117;DHT22;32591;48.102;11.772;2023-04-25T01:32:54;8.20;99.90
46117;DHT22;32591;48.102;11.772;2023-04-25T01:35:22;8.20;99.90
46117;DHT22;32591;48.102;11.772;2023-04-25T01:37:51;8.20;99.90
46117;DHT22;32591;48.102;11.772;2023-04-25T01:40:21;8.20;99.90
46117;DHT22;32591;48.102;11.772;2023-04-25T01:42:49;8.20;99.90
46117;DHT22;32591;48.102;11.772;2023-04-25T01:45:17;8.20;99.90
46117;DHT22;32591;48.102;11.772;2023-04-25T01:47:44;8.20;99.90
46117;DHT22;32591;48.102;11.772;2023-04-25T01:50:15;8.10;99.90
46117;DHT22;32591;48.102;11.772;2023-04-25T01:52:43;8.10;99.90
46117;DHT22;32591;48.102;11.772;2023-04-25T01:55:10;8.10;99.90
46117;DHT22;32591;48.102;11.772;2023-04-25T01:57:39;8.00;99.90
46117;DHT22;32591;48.102;11.772;2023-04-25T02:00:07;8.00;99.90
46117;DHT22;32591;48.102;11.772;2023-04-25T02:02:35;7.90;99.90
46117;DHT22;32591;48.102;11.772;2023-04-25T02:05:03;7.90;99.90
46117;DHT22;32591;48.102;11.772;2023-04-25T02:07:30;7.80;99.90
46117;DHT22;32591;48.102;11.772;2023-04-25T02:09:57;7.70;99.90
46117;DHT22;32591;48.102;11.772;2023-04-25T02:12:24;7.60;99.90
46117;DHT22;32591;48.102;11.772;2023-04-25T02:14:53;7.60;99.90
46117;DHT22;32591;48.102;11.772;2023-04-25T02:17:20;7.60;99.90
46117;DHT22;32591;48.102;11.772;2023-04-25T02:19:47;7.60;99.90
46117;DHT22;32591;48.102;11.772;2023-04-25T02:22:15;7.60;99.90
46117;DHT22;32591;48.102;11.772;2023-04-25T02:24:42;7.60;99.90
46117;DHT22;32591;48.102;11.772;2023-04-25T02:27:09;7.60;99.90
46117;DHT22;32591;48.102;11.772;2023-04-25T02:29:36;7.60;99.90
46117;DHT22;32591;48.102;11.772;2023-04-25T02:32:04;7.60;99.90
46117;DHT22;32591;48.102;11.772;2023-04-25T02:34:31;7.60;99.90
46117;DHT22;32591;48.102;11.772;2023-04-25T02:36:58;7.50;99.90
46117;DHT22;32591;48.102;11.772;2023-04-25T02:39:25;7.50;99.90
46117;DHT22;32591;48.102;11.772;2023-04-25T02:41:52;7.50;99.90
46117;DHT22;32591;48.102;11.772;2023-04-25T02:44:20;7.50;99.90
46117;DHT22;32591;48.102;11.772;2023-04-25T02:46:46;7.60;99.90
46117;DHT22;32591;48.102;11.772;2023-04-25T02:49:15;7.60;99.90
46117;DHT22;32591;48.102;11.772;2023-04-25T02:51:42;7.60;99.90
46117;DHT22;32591;48.102;11.772;2023-04-25T02:54:09;7.60;99.90
46117;DHT22;32591;48.102;11.772;2023-04-25T02:56:35;7.70;99.90
46117;DHT22;32591;48.102;11.772;2023-04-25T02:59:02;7.70;99.90
46117;DHT22;32591;48.102;11.772;2023-04-25T03:01:29;7.60;99.90
46117;DHT22;32591;48.102;11.772;2023-04-25T03:03:56;7.60;99.90
46117;DHT22;32591;48.102;11.772;2023-04-25T03:06:24;7.60;99.90
46117;DHT22;32591;48.102;11.772;2023-04-25T03:08:51;7.60;99.90
46117;DHT22;32591;48.102;11.772;2023-04-25T03:11:18;7.60;99.90
46117;DHT22;32591;48.102;11.772;2023-04-25T03:13:46;7.70;99.90
46117;DHT22;32591;48.102;11.772;2023-04-25T03:16:13;7.70;99.90
46117;DHT22;32591;48.102;11.772;2023-04-25T03:18:40;7.70;99.90
46117;DHT22;32591;48.102;11.772;2023-04-25T03:21:07;7.70;99.90
46117;DHT22;32591;48.102;11.772;2023-04-25T03:23:35;7.70;99.90
46117;DHT22;32591;48.102;11.772;2023-04-25T03:26:02;7.70;99.90
46117;DHT22;32591;48.102;11.772;2023-04-25T03:28:29;7.70;99.90
46117;DHT22;32591;48.102;11.772;2023-04-25T03:30:56;7.60;99.90
46117;DHT22;32591;48.102;11.772;2023-04-25T03:33:23;7.40;99.90
46117;DHT22;32591;48.102;11.772;2023-04-25T03:35:50;7.30;99.90
46117;DHT22;32591;48.102;11.772;2023-04-25T03:38:17;7.10;99.90
46117;DHT22;32591;48.102;11.772;2023-04-25T03:40:45;7.10;99.90
46117;DHT22;32591;48.102;11.772;2023-04-25T03:43:12;7.00;99.90
46117;DHT22;32591;48.102;11.772;2023-04-25T03:45:40;7.00;99.90
46117;DHT22;32591;48.102;11.772;2023-04-25T03:48:07;7.10;99.90
46117;DHT22;32591;48.102;11.772;2023-04-25T03:50:34;7.00;99.90
46117;DHT22;32591;48.102;11.772;2023-04-25T03:53:01;6.90;99.90
46117;DHT22;32591;48.102;11.772;2023-04-25T03:55:28;6.90;99.90
46117;DHT22;32591;48.102;11.772;2023-04-25T03:57:57;6.90;99.90
46117;DHT22;32591;48.102;11.772;2023-04-25T04:00:24;6.90;99.90
46117;DHT22;32591;48.102;11.772;2023-04-25T04:02:51;6.90;99.90
46117;DHT22;32591;48.102;11.772;2023-04-25T04:05:18;6.80;99.90
46117;DHT22;32591;48.102;11.772;2023-04-25T04:07:45;6.70;99.90
46117;DHT22;32591;48.102;11.772;2023-04-25T04:10:12;6.70;99.90
46117;DHT22;32591;48.102;11.772;2023-04-25T04:12:39;6.80;99.90
46117;DHT22;32591;48.102;11.772;2023-04-25T04:15:08;6.80;99.90
46117;DHT22;32591;48.102;11.772;2023-04-25T04:17:36;6.70;99.90
46117;DHT22;32591;48.102;11.772;2023-04-25T04:20:03;6.70;99.90
46117;DHT22;32591;48.102;11.772;2023-04-25T04:22:32;6.60;99.90
46117;DHT22;32591;48.102;11.772;2023-04-25T04:24:58;6.60;99.90
46117;DHT22;32591;48.102;11.772;2023-04-25T04:27:25;6.70;99.90
46117;DHT22;32591;48.102;11.772;2023-04-25T04:29:54;6.70;99.90
46117;DHT22;32591;48.102;11.772;2023-04-25T04:32:23;6.90;99.90
46117;DHT22;32591;48.102;11.772;2023-04-25T04:34:50;7.00;99.90
46117;DHT22;32591;48.102;11.772;2023-04-25T04:37:20;7.00;99.90
46117;DHT22;32591;48.102;11.772;2023-04-25T04:39:47;7.00;99.90
46117;DHT22;32591;48.102;11.772;2023-04-25T04:42:14;7.00;99.90
46117;DHT22;32591;48.102;11.772;2023-04-25T04:44:41;7.00;99.90
46117;DHT22;32591;48.102;11.772;2023-04-25T04:47:10;7.00;99.90
46117;DHT22;32591;48.102;11.772;2023-04-25T04:49:40;7.00;99.90
46117;DHT22;32591;48.102;11.772;2023-04-25T04:52:08;7.00;99.90
46117;DHT22;32591;48.102;11.772;2023-04-25T04:54:35;7.00;99.90
46117;DHT22;32591;48.102;11.772;2023-04-25T04:57:02;6.90;99.90
46117;DHT22;32591;48.102;11.772;2023-04-25T04:59:29;6.80;99.90
46117;DHT22;32591;48.102;11.772;2023-04-25T05:01:55;6.80;99.90
46117;DHT22;32591;48.102;11.772;2023-04-25T05:04:22;6.80;99.90
46117;DHT22;32591;48.102;11.772;2023-04-25T05:06:51;6.70;99.90
46117;DHT22;32591;48.102;11.772;2023-04-25T05:09:17;6.70;99.90
46117;DHT22;32591;48.102;11.772;2023-04-25T05:11:44;6.60;99.90
46117;DHT22;32591;48.102;11.772;2023-04-25T05:14:12;6.70;99.90
46117;DHT22;32591;48.102;11.772;2023-04-25T05:16:38;6.70;99.90
46117;DHT22;32591;48.102;11.772;2023-04-25T05:19:05;6.70;99.90
46117;DHT22;32591;48.102;11.772;2023-04-25T05:21:32;6.80;99.90
46117;DHT22;32591;48.102;11.772;2023-04-25T05:24:01;6.90;99.90
46117;DHT22;32591;48.102;11.772;2023-04-25T05:26:28;7.00;99.90
46117;DHT22;32591;48.102;11.772;2023-04-25T05:28:56;7.00;99.90
46117;DHT22;32591;48.102;11.772;2023-04-25T05:31:23;7.00;99.90
46117;DHT22;32591;48.102;11.772;2023-04-25T05:33:50;7.00;99.90
46117;DHT22;32591;48.102;11.772;2023-04-25T05:36:17;7.00;99.90
46117;DHT22;32591;48.102;11.772;2023-04-25T05:38:45;7.00;99.90
46117;DHT22;32591;48.102;11.772;2023-04-25T05:41:13;7.00;99.90
46117;DHT22;32591;48.102;11.772;2023-04-25T05:43:40;7.00;99.90
46117;DHT22;32591;48.102;11.772;2023-04-25T05:46:10;7.00;99.90
46117;DHT22;32591;48.102;11.772;2023-04-25T05:48:37;7.00;99.90
46117;DHT22;32591;48.102;11.772;2023-04-25T05:51:05;7.10;99.90
46117;DHT22;32591;48.102;11.772;2023-04-25T05:53:31;7.10;99.90
46117;DHT22;32591;48.102;11.772;2023-04-25T05:55:58;7.20;99.90
46117;DHT22;32591;48.102;11.772;2023-04-25T05:58:27;7.20;99.90
46117;DHT22;32591;48.102;11.772;2023-04-25T06:00:54;7.30;99.90
46117;DHT22;32591;48.102;11.772;2023-04-25T06:03:21;7.30;99.90
46117;DHT22;32591;48.102;11.772;2023-04-25T06:05:48;7.40;99.90
46117;DHT22;32591;48.102;11.772;2023-04-25T06:08:15;7.40;99.90
46117;DHT22;32591;48.102;11.772;2023-04-25T06:10:42;7.40;99.90
46117;DHT22;32591;48.102;11.772;2023-04-25T06:13:09;7.50;99.90
46117;DHT22;32591;48.102;11.772;2023-04-25T06:15:37;7.50;99.90
46117;DHT22;32591;48.102;11.772;2023-04-25T06:18:04;7.60;99.90
46117;DHT22;32591;48.102;11.772;2023-04-25T06:20:31;7.60;99.90
46117;DHT22;32591;48.102;11.772;2023-04-25T06:22:57;7.50;99.90
46117;DHT22;32591;48.102;11.772;2023-04-25T06:25:24;7.50;99.90
46117;DHT22;32591;48.102;11.772;2023-04-25T06:27:51;7.60;99.90
46117;DHT22;32591;48.102;11.772;2023-04-25T06:30:18;7.60;99.90
46117;DHT22;32591;48.102;11.772;2023-04-25T06:32:49;7.40;99.90
46117;DHT22;32591;48.102;11.772;2023-04-25T06:35:16;7.20;99.90
46117;DHT22;32591;48.102;11.772;2023-04-25T06:37:43;7.00;99.90
46117;DHT22;32591;48.102;11.772;2023-04-25T06:40:10;6.90;99.90
46117;DHT22;32591;48.102;11.772;2023-04-25T06:42:37;6.80;99.90
46117;DHT22;32591;48.102;11.772;2023-04-25T06:45:04;6.70;99.90
46117;DHT22;32591;48.102;11.772;2023-04-25T06:47:31;6.60;99.90
46117;DHT22;32591;48.102;11.772;2023-04-25T06:49:59;6.70;99.90
46117;DHT22;32591;48.102;11.772;2023-04-25T06:52:26;6.70;99.90
46117;DHT22;32591;48.102;11.772;2023-04-25T06:54:53;6.70;99.90
46117;DHT22;32591;48.102;11.772;2023-04-25T06:57:21;6.70;99.90
46117;DHT22;32591;48.102;11.772;2023-04-25T06:59:47;6.80;99.90
46117;DHT22;32591;48.102;11.772;2023-04-25T07:02:14;6.80;99.90
46117;DHT22;32591;48.102;11.772;2023-04-25T07:04:41;6.90;99.90
46117;DHT22;32591;48.102;11.772;2023-04-25T07:07:10;7.00;99.90
46117;DHT22;32591;48.102;11.772;2023-04-25T07:09:37;7.20;99.90
46117;DHT22;32591;48.102;11.772;2023-04-25T07:12:04;7.40;99.90
46117;DHT22;32591;48.102;11.772;2023-04-25T07:14:32;7.40;99.90
46117;DHT22;32591;48.102;11.772;2023-04-25T07:16:58;7.60;99.90
46117;DHT22;32591;48.102;11.772;2023-04-25T07:19:25;7.70;99.90
46117;DHT22;32591;48.102;11.772;2023-04-25T07:21:55;7.70;99.90
46117;DHT22;32591;48.102;11.772;2023-04-25T07:24:23;7.80;99.90
46117;DHT22;32591;48.102;11.772;2023-04-25T07:26:50;7.80;99.90
46117;DHT22;32591;48.102;11.772;2023-04-25T07:29:17;7.80;99.90
46117;DHT22;32591;48.102;11.772;2023-04-25T07:31:44;7.90;99.90
46117;DHT22;32591;48.102;11.772;2023-04-25T07:34:11;8.10;99.90
46117;DHT22;32591;48.102;11.772;2023-04-25T07:36:38;8.40;99.90
46117;DHT22;32591;48.102;11.772;2023-04-25T07:39:05;8.40;99.90
46117;DHT22;32591;48.102;11.772;2023-04-25T07:41:35;8.40;99.90
46117;DHT22;32591;48.102;11.772;2023-04-25T07:44:03;8.30;99.90
46117;DHT22;32591;48.102;11.772;2023-04-25T07:46:30;8.30;99.90
46117;DHT22;32591;48.102;11.772;2023-04-25T07:48:57;8.40;99.90
46117;DHT22;32591;48.102;11.772;2023-04-25T07:51:24;8.60;99.90
46117;DHT22;32591;48.102;11.772;2023-04-25T07:53:51;8.50;99.90
46117;DHT22;32591;48.102;11.772;2023-04-25T07:56:18;8.50;99.90
46117;DHT22;32591;48.102;11.772;2023-04-25T07:58:46;8.60;99.90
46117;DHT22;32591;48.102;11.772;2023-04-25T08:01:13;8.70;99.90
46117;DHT22;32591;48.102;11.772;2023-04-25T08:03:40;8.80;99.90
46117;DHT22;32591;48.102;11.772;2023-04-25T08:06:07;8.90;99.90
46117;DHT22;32591;48.102;11.772;2023-04-25T08:08:34;9.00;99.90
46117;DHT22;32591;48.102;11.772;2023-04-25T08:11:01;9.10;99.90
46117;DHT22;32591;48.102;11.772;2023-04-25T08:13:28;9.10;99.90
46117;DHT22;32591;48.102;11.772;2023-04-25T08:15:57;9.20;99.90
46117;DHT22;32591;48.102;11.772;2023-04-25T08:18:24;9.30;99.90
46117;DHT22;32591;48.102;11.772;2023-04-25T08:20:51;9.20;99.90
46117;DHT22;32591;48.102;11.772;2023-04-25T08:23:18;9.30;99.90
46117;DHT22;32591;48.102;11.772;2023-04-25T08:25:45;9.60;99.90
46117;DHT22;32591;48.102;11.772;2023-04-25T08:28:12;9.80;99.90
46117;DHT22;32591;48.102;11.772;2023-04-25T08:30:40;9.60;99.90
46117;DHT22;32591;48.102;11.772;2023-04-25T08:33:09;9.60;99.90
46117;DHT22;32591;48.102;11.772;2023-04-25T08:35:36;9.90;99.90
46117;DHT22;32591;48.102;11.772;2023-04-25T08:38:03;10.10;99.90
46117;DHT22;32591;48.102;11.772;2023-04-25T08:40:31;10.20;99.90
46117;DHT22;32591;48.102;11.772;2023-04-25T08:43:03;10.30;99.90
46117;DHT22;32591;48.102;11.772;2023-04-25T08:45:32;10.20;99.90
46117;DHT22;32591;48.102;11.772;2023-04-25T08:48:01;10.20;99.90
46117;DHT22;32591;48.102;11.772;2023-04-25T08:50:30;10.10;99.90
46117;DHT22;32591;48.102;11.772;2023-04-25T08:52:59;10.00;99.90
46117;DHT22;32591;48.102;11.772;2023-04-25T08:55:31;10.10;99.90
46117;DHT22;32591;48.102;11.772;2023-04-25T08:57:59;10.20;99.90
46117;DHT22;32591;48.102;11.772;2023-04-25T09:00:27;10.30;99.90
46117;DHT22;32591;48.102;11.772;2023-04-25T09:02:55;10.30;99.90
46117;DHT22;32591;48.102;11.772;2023-04-25T09:05:22;10.40;99.90
46117;DHT22;32591;48.102;11.772;2023-04-25T09:07:51;10.60;99.90
46117;DHT22;32591;48.102;11.772;2023-04-25T09:10:18;10.70;99.90
46117;DHT22;32591;48.102;11.772;2023-04-25T09:12:45;10.90;99.90
46117;DHT22;32591;48.102;11.772;2023-04-25T09:15:29;11.10;99.90
46117;DHT22;32591;48.102;11.772;2023-04-25T09:17:56;11.30;99.90
46117;DHT22;32591;48.102;11.772;2023-04-25T09:20:23;11.50;99.90
46117;DHT22;32591;48.102;11.772;2023-04-25T09:23:01;11.40;99.90
46117;DHT22;32591;48.102;11.772;2023-04-25T09:25:34;11.50;99.90
46117;DHT22;32591;48.102;11.772;2023-04-25T09:28:04;11.60;99.90
46117;DHT22;32591;48.102;11.772;2023-04-25T09:30:34;11.50;99.70
46117;DHT22;32591;48.102;11.772;2023-04-25T09:33:06;11.50;99.80
46117;DHT22;32591;48.102;11.772;2023-04-25T09:35:38;11.40;98.80
46117;DHT22;32591;48.102;11.772;2023-04-25T09:38:13;11.50;99.30
46117;DHT22;32591;48.102;11.772;2023-04-25T09:40:45;11.50;98.40
46117;DHT22;32591;48.102;11.772;2023-04-25T09:43:19;11.50;97.90
46117;DHT22;32591;48.102;11.772;2023-04-25T09:45:47;11.40;97.90
46117;DHT22;32591;48.102;11.772;2023-04-25T09:48:17;11.30;98.20
46117;DHT22;32591;48.102;11.772;2023-04-25T09:50:45;11.20;99.20
46117;DHT22;32591;48.102;11.772;2023-04-25T09:53:14;11.20;99.40
46117;DHT22;32591;48.102;11.772;2023-04-25T09:55:42;11.30;99.90
46117;DHT22;32591;48.102;11.772;2023-04-25T09:58:11;11.40;99.90
46117;DHT22;32591;48.102;11.772;2023-04-25T10:00:39;11.30;99.70
46117;DHT22;32591;48.102;11.772;2023-04-25T10:03:08;11.20;99.70
46117;DHT22;32591;48.102;11.772;2023-04-25T10:05:35;11.10;99.40
46117;DHT22;32591;48.102;11.772;2023-04-25T10:08:04;11.10;98.80
46117;DHT22;32591;48.102;11.772;2023-04-25T10:10:33;11.60;98.30
46117;DHT22;32591;48.102;11.772;2023-04-25T10:13:04;11.90;97.50
46117;DHT22;32591;48.102;11.772;2023-04-25T10:15:34;12.30;96.70
46117;DHT22;32591;48.102;11.772;2023-04-25T10:18:02;12.40;95.10
46117;DHT22;32591;48.102;11.772;2023-04-25T10:20:30;12.30;95.20
46117;DHT22;32591;48.102;11.772;2023-04-25T10:23:03;12.10;95.10
46117;DHT22;32591;48.102;11.772;2023-04-25T10:25:34;12.00;95.60
46117;DHT22;32591;48.102;11.772;2023-04-25T10:28:03;12.30;95.00
46117;DHT22;32591;48.102;11.772;2023-04-25T10:30:30;12.70;93.40
46117;DHT22;32591;48.102;11.772;2023-04-25T10:32:59;12.60;92.40
46117;DHT22;32591;48.102;11.772;2023-04-25T10:35:27;12.50;91.50
46117;DHT22;32591;48.102;11.772;2023-04-25T10:38:00;12.40;93.00
46117;DHT22;32591;48.102;11.772;2023-04-25T10:40:31;12.30;93.60
46117;DHT22;32591;48.102;11.772;2023-04-25T10:46:15;12.30;94.00
46117;DHT22;32591;48.102;11.772;2023-04-25T10:48:50;12.40;93.80
46117;DHT22;32591;48.102;11.772;2023-04-25T10:51:21;12.80;94.00
46117;DHT22;32591;48.102;11.772;2023-04-25T10:54:00;13.10;93.70
46117;DHT22;32591;48.102;11.772;2023-04-25T10:56:28;13.30;89.60
46117;DHT22;32591;48.102;11.772;2023-04-25T10:59:09;13.20;89.40
46117;DHT22;32591;48.102;11.772;2023-04-25T11:01:39;13.00;88.70
46117;DHT22;32591;48.102;11.772;2023-04-25T11:04:16;12.70;90.20
46117;DHT22;32591;48.102;11.772;2023-04-25T11:06:53;12.30;92.40
46117;DHT22;32591;48.102;11.772;2023-04-25T11:09:25;11.60;99.90
46117;DHT22;32591;48.102;11.772;2023-04-25T11:11:54;10.50;99.90
46117;DHT22;32591;48.102;11.772;2023-04-25T11:14:23;9.60;99.90
46117;DHT22;32591;48.102;11.772;2023-04-25T11:16:53;8.90;99.90
46117;DHT22;32591;48.102;11.772;2023-04-25T11:19:21;8.60;99.90
46117;DHT22;32591;48.102;11.772;2023-04-25T11:21:48;8.60;99.90
46117;DHT22;32591;48.102;11.772;2023-04-25T11:24:16;8.60;99.90
46117;DHT22;32591;48.102;11.772;2023-04-25T11:26:43;8.80;99.90
46117;DHT22;32591;48.102;11.772;2023-04-25T11:29:11;8.80;99.90
46117;DHT22;32591;48.102;11.772;2023-04-25T11:31:43;8.90;99.90
46117;DHT22;32591;48.102;11.772;2023-04-25T11:34:10;9.00;99.90
46117;DHT22;32591;48.102;11.772;2023-04-25T11:36:38;9.10;99.90
46117;DHT22;32591;48.102;11.772;2023-04-25T11:39:05;9.10;99.90
46117;DHT22;32591;48.102;11.772;2023-04-25T11:41:33;9.10;99.90
46117;DHT22;32591;48.102;11.772;2023-04-25T11:44:00;9.10;99.90
46117;DHT22;32591;48.102;11.772;2023-04-25T11:46:27;9.10;99.90
46117;DHT22;32591;48.102;11.772;2023-04-25T11:48:56;9.00;99.90
46117;DHT22;32591;48.102;11.772;2023-04-25T11:51:24;8.80;99.90
46117;DHT22;32591;48.102;11.772;2023-04-25T11:53:51;8.70;99.90
46117;DHT22;32591;48.102;11.772;2023-04-25T11:56:18;8.60;99.90
46117;DHT22;32591;48.102;11.772;2023-04-25T11:58:56;8.40;99.90
46117;DHT22;32591;48.102;11.772;2023-04-25T12:01:28;8.40;99.90
46117;DHT22;32591;48.102;11.772;2023-04-25T12:03:58;8.30;99.90
46117;DHT22;32591;48.102;11.772;2023-04-25T12:06:28;8.40;99.90
46117;DHT22;32591;48.102;11.772;2023-04-25T12:09:03;8.40;99.90
46117;DHT22;32591;48.102;11.772;2023-04-25T12:11:31;8.50;99.90
46117;DHT22;32591;48.102;11.772;2023-04-25T12:14:02;8.50;99.90
46117;DHT22;32591;48.102;11.772;2023-04-25T12:16:39;8.50;99.90
46117;DHT22;32591;48.102;11.772;2023-04-25T12:19:08;8.40;99.90
46117;DHT22;32591;48.102;11.772;2023-04-25T12:21:35;8.30;99.90
46117;DHT22;32591;48.102;11.772;2023-04-25T12:24:13;8.10;99.90
46117;DHT22;32591;48.102;11.772;2023-04-25T12:26:48;7.90;99.90
46117;DHT22;32591;48.102;11.772;2023-04-25T12:29:17;8.00;99.90
46117;DHT22;32591;48.102;11.772;2023-04-25T12:31:44;8.00;99.90
46117;DHT22;32591;48.102;11.772;2023-04-25T12:34:13;8.10;99.90
46117;DHT22;32591;48.102;11.772;2023-04-25T12:36:40;8.10;99.90
46117;DHT22;32591;48.102;11.772;2023-04-25T12:39:07;8.10;99.90
46117;DHT22;32591;48.102;11.772;2023-04-25T12:41:34;8.00;99.90
46117;DHT22;32591;48.102;11.772;2023-04-25T12:44:01;8.10;99.90
46117;DHT22;32591;48.102;11.772;2023-04-25T12:46:28;8.20;99.90
46117;DHT22;32591;48.102;11.772;2023-04-25T12:48:55;8.20;99.90
46117;DHT22;32591;48.102;11.772;2023-04-25T12:51:24;8.20;99.90
46117;DHT22;32591;48.102;11.772;2023-04-25T12:53:53;8.10;99.90
46117;DHT22;32591;48.102;11.772;2023-04-25T12:56:20;8.20;99.90
46117;DHT22;32591;48.102;11.772;2023-04-25T12:58:47;8.30;99.90
46117;DHT22;32591;48.102;11.772;2023-04-25T13:01:14;8.50;99.90
46117;DHT22;32591;48.102;11.772;2023-04-25T13:03:41;8.50;99.90
46117;DHT22;32591;48.102;11.772;2023-04-25T13:06:09;8.50;99.90
46117;DHT22;32591;48.102;11.772;2023-04-25T13:08:37;8.60;99.90
46117;DHT22;32591;48.102;11.772;2023-04-25T13:11:04;8.60;99.90
46117;DHT22;32591;48.102;11.772;2023-04-25T13:13:32;8.50;99.90
46117;DHT22;32591;48.102;11.772;2023-04-25T13:16:00;8.40;99.90
46117;DHT22;32591;48.102;11.772;2023-04-25T13:18:27;8.50;99.90
46117;DHT22;32591;48.102;11.772;2023-04-25T13:20:54;8.50;99.90
46117;DHT22;32591;48.102;11.772;2023-04-25T13:23:21;8.40;99.90
46117;DHT22;32591;48.102;11.772;2023-04-25T13:25:50;8.40;99.90
46117;DHT22;32591;48.102;11.772;2023-04-25T13:28:17;8.40;99.90
46117;DHT22;32591;48.102;11.772;2023-04-25T13:30:44;8.40;99.90
46117;DHT22;32591;48.102;11.772;2023-04-25T13:33:11;8.30;99.90
46117;DHT22;32591;48.102;11.772;2023-04-25T13:35:38;8.30;99.90
46117;DHT22;32591;48.102;11.772;2023-04-25T13:38:05;8.20;99.90
46117;DHT22;32591;48.102;11.772;2023-04-25T13:40:32;8.20;99.90
46117;DHT22;32591;48.102;11.772;2023-04-25T13:43:01;8.10;99.90
46117;DHT22;32591;48.102;11.772;2023-04-25T13:45:28;8.00;99.90
46117;DHT22;32591;48.102;11.772;2023-04-25T13:47:55;8.00;99.90
46117;DHT22;32591;48.102;11.772;2023-04-25T13:50:22;8.00;99.90
46117;DHT22;32591;48.102;11.772;2023-04-25T13:52:49;8.00;99.90
46117;DHT22;32591;48.102;11.772;2023-04-25T13:55:16;8.00;99.90
46117;DHT22;32591;48.102;11.772;2023-04-25T13:57:43;8.00;99.90
46117;DHT22;32591;48.102;11.772;2023-04-25T14:00:13;8.20;99.90
46117;DHT22;32591;48.102;11.772;2023-04-25T14:02:41;8.30;99.90
46117;DHT22;32591;48.102;11.772;2023-04-25T14:05:08;8.30;99.90
46117;DHT22;32591;48.102;11.772;2023-04-25T14:07:36;8.20;99.90
46117;DHT22;32591;48.102;11.772;2023-04-25T14:10:03;8.20;99.90
46117;DHT22;32591;48.102;11.772;2023-04-25T14:12:31;8.00;99.90
46117;DHT22;32591;48.102;11.772;2023-04-25T14:14:58;7.90;99.90
46117;DHT22;32591;48.102;11.772;2023-04-25T14:17:27;7.80;99.90
46117;DHT22;32591;48.102;11.772;2023-04-25T14:19:54;7.80;99.90
46117;DHT22;32591;48.102;11.772;2023-04-25T14:22:21;7.70;99.90
46117;DHT22;32591;48.102;11.772;2023-04-25T14:24:48;7.60;99.90
46117;DHT22;32591;48.102;11.772;2023-04-25T14:27:15;7.50;99.90
46117;DHT22;32591;48.102;11.772;2023-04-25T14:29:42;7.60;99.90
46117;DHT22;32591;48.102;11.772;2023-04-25T14:32:09;7.60;99.90
46117;DHT22;32591;48.102;11.772;2023-04-25T14:34:37;7.70;99.90
46117;DHT22;32591;48.102;11.772;2023-04-25T14:37:04;7.60;99.90
46117;DHT22;32591;48.102;11.772;2023-04-25T14:39:31;7.60;99.90
46117;DHT22;32591;48.102;11.772;2023-04-25T14:41:59;7.40;99.90
46117;DHT22;32591;48.102;11.772;2023-04-25T14:44:26;7.30;99.90
46117;DHT22;32591;48.102;11.772;2023-04-25T14:46:53;7.40;99.90
46117;DHT22;32591;48.102;11.772;2023-04-25T14:49:20;7.50;99.90
46117;DHT22;32591;48.102;11.772;2023-04-25T14:51:48;7.60;99.90
46117;DHT22;32591;48.102;11.772;2023-04-25T14:54:15;7.60;99.90
46117;DHT22;32591;48.102;11.772;2023-04-25T14:56:42;7.70;99.90
46117;DHT22;32591;48.102;11.772;2023-04-25T14:59:09;7.70;99.90
46117;DHT22;32591;48.102;11.772;2023-04-25T15:01:37;7.80;99.90
46117;DHT22;32591;48.102;11.772;2023-04-25T15:04:03;7.80;99.90
46117;DHT22;32591;48.102;11.772;2023-04-25T15:06:31;8.00;99.90
46117;DHT22;32591;48.102;11.772;2023-04-25T15:08:59;8.10;99.90
46117;DHT22;32591;48.102;11.772;2023-04-25T15:11:25;8.10;99.90
46117;DHT22;32591;48.102;11.772;2023-04-25T15:13:52;8.10;99.90
46117;DHT22;32591;48.102;11.772;2023-04-25T15:16:20;8.40;99.90
46117;DHT22;32591;48.102;11.772;2023-04-25T15:26:29;8.40;99.90
46117;DHT22;32591;48.102;11.772;2023-04-25T15:28:56;8.50;99.90
46117;DHT22;32591;48.102;11.772;2023-04-25T15:31:23;8.50;99.90
46117;DHT22;32591;48.102;11.772;2023-04-25T15:33:50;8.40;99.90
46117;DHT22;32591;48.102;11.772;2023-04-25T15:36:17;8.40;99.90
46117;DHT22;32591;48.102;11.772;2023-04-25T15:38:44;8.30;99.90
46117;DHT22;32591;48.102;11.772;2023-04-25T15:41:11;8.30;99.90
46117;DHT22;32591;48.102;11.772;2023-04-25T15:43:40;8.30;99.90